Time;durP1;ratioP1;P1;durP2;ratioP2;P2;SDS_P1;SDS_P2;PMS_P1;PMS_P2;Temp;Humidity;BMP_temperature;BMP_pressure;BME280_temperature;BME280_humidity;BME280_pressure;Samples;Min_cycle;Max_cycle;Signal;HPM_P1;HPM_P2
2022/02/25 00:01:51;;;;;;;3.50;2.50;;;2.20;99.90;;;;;;5047226;28;20025;-71
2022/02/25 00:04:17;;;;;;;2.90;2.70;;;2.10;99.90;;;;;;5046313;28;20025;-71
2022/02/25 00:06:42;;;;;;;2.40;2.20;;;2.00;99.90;;;;;;5026242;28;20022;-71
2022/02/25 00:09:08;;;;;;;3.00;2.80;;;2.00;99.90;;;;;;5014027;28;20022;-71
2022/02/25 00:11:34;;;;;;;3.40;3.10;;;2.10;99.90;;;;;;5013779;28;20022;-71
2022/02/25 00:13:59;;;;;;;3.42;2.83;;;2.00;99.90;;;;;;5013879;28;20030;-71
2022/02/25 00:16:25;;;;;;;3.33;3.00;;;2.00;99.90;;;;;;5013879;28;20034;-71
2022/02/25 00:18:51;;;;;;;4.95;2.80;;;2.10;99.90;;;;;;5022378;28;20197;-71
2022/02/25 00:21:16;;;;;;;3.10;2.78;;;2.20;99.90;;;;;;5033359;28;20057;-71
2022/02/25 00:23:42;;;;;;;3.03;2.78;;;2.10;99.90;;;;;;5033587;28;20026;-71
2022/02/25 00:26:07;;;;;;;4.10;3.25;;;2.10;99.90;;;;;;5032651;28;20472;-71
2022/02/25 00:28:33;;;;;;;2.97;2.67;;;2.20;99.90;;;;;;5013643;28;20251;-71
2022/02/25 00:30:59;;;;;;;2.90;2.70;;;2.20;99.90;;;;;;5013342;28;20033;-71
2022/02/25 00:33:24;;;;;;;3.22;2.92;;;2.00;99.90;;;;;;5013589;28;20092;-71
2022/02/25 00:35:50;;;;;;;3.10;2.80;;;1.90;99.90;;;;;;5012252;28;20040;-71
2022/02/25 00:38:20;;;;;;;3.22;2.88;;;1.90;99.90;;;;;;5013622;28;20447;-71
2022/02/25 00:40:46;;;;;;;3.78;2.80;;;2.00;99.90;;;;;;5013607;28;20057;-71
2022/02/25 00:43:12;;;;;;;3.13;2.83;;;2.00;99.90;;;;;;5013520;28;20069;-71
2022/02/25 00:45:38;;;;;;;2.90;2.63;;;2.00;99.90;;;;;;5013443;28;20444;-71
2022/02/25 00:48:04;;;;;;;3.58;2.97;;;1.90;99.90;;;;;;5013393;28;20028;-70
2022/02/25 00:50:30;;;;;;;4.38;3.58;;;1.90;99.90;;;;;;5012876;28;20112;-71
2022/02/25 00:52:55;;;;;;;3.75;3.28;;;1.90;99.90;;;;;;5012182;28;20057;-70
2022/02/25 00:55:22;;;;;;;4.15;2.95;;;2.00;99.90;;;;;;5013171;28;20034;-71
2022/02/25 00:57:49;;;;;;;4.18;3.47;;;2.10;99.90;;;;;;5013125;28;20034;-71
2022/02/25 01:00:17;;;;;;;3.53;3.20;;;2.10;99.90;;;;;;5012862;28;20101;-71
2022/02/25 01:02:43;;;;;;;3.30;3.00;;;2.10;99.90;;;;;;5012567;28;20022;-71
2022/02/25 01:05:09;;;;;;;4.43;3.20;;;2.10;99.90;;;;;;5024945;28;20030;-71
2022/02/25 01:07:36;;;;;;;4.20;3.42;;;2.00;99.90;;;;;;5024111;28;20022;-71
2022/02/25 01:10:03;;;;;;;4.03;3.60;;;2.10;99.90;;;;;;5024265;28;20029;-71
2022/02/25 01:12:29;;;;;;;3.47;3.10;;;2.00;99.90;;;;;;5012630;28;20022;-71
2022/02/25 01:14:54;;;;;;;3.45;3.15;;;2.00;99.90;;;;;;5012807;28;20025;-71
2022/02/25 01:17:19;;;;;;;5.10;3.00;;;2.00;99.90;;;;;;5019633;28;20044;-71
2022/02/25 01:19:46;;;;;;;3.10;2.90;;;;;;;;;;5030516;28;20389;-71
2022/02/25 01:22:11;;;;;;;4.63;3.00;;;2.10;99.90;;;;;;5013169;28;20450;-71
2022/02/25 01:24:37;;;;;;;3.35;2.70;;;2.00;99.90;;;;;;5011251;28;20117;-71
2022/02/25 01:27:06;;;;;;;2.60;2.40;;;2.20;99.90;;;;;;5012476;28;20065;-71
2022/02/25 01:29:31;;;;;;;3.35;2.88;;;2.10;99.90;;;;;;5011144;28;20045;-71
2022/02/25 01:31:57;;;;;;;3.47;2.63;;;2.10;99.90;;;;;;5012340;28;20024;-71
2022/02/25 01:34:22;;;;;;;3.90;2.92;;;2.10;99.90;;;;;;5012425;28;20037;-71
2022/02/25 01:36:48;;;;;;;3.63;2.80;;;2.10;99.90;;;;;;5012559;28;20034;-71
2022/02/25 01:39:14;;;;;;;3.17;2.88;;;2.00;99.90;;;;;;5012922;28;20499;-71
2022/02/25 01:41:39;;;;;;;3.22;2.65;;;2.00;99.90;;;;;;5023704;28;20022;-71
2022/02/25 01:44:20;;;;;;;3.47;2.97;;;2.00;99.90;;;;;;5014761;28;20395;-71
2022/02/25 01:46:54;;;;;;;5.85;3.28;;;2.00;99.90;;;;;;5012364;28;20033;-72
2022/02/25 01:49:21;;;;;;;3.17;2.75;;;2.00;99.90;;;;;;5012057;28;20026;-70
2022/02/25 01:51:48;;;;;;;3.85;3.10;;;1.90;99.90;;;;;;5012089;28;20018;-71
2022/02/25 01:54:14;;;;;;;3.50;3.20;;;2.00;99.90;;;;;;5012095;28;20337;-71
2022/02/25 01:56:41;;;;;;;3.88;3.20;;;1.90;99.90;;;;;;5012204;28;20097;-71
2022/02/25 01:59:08;;;;;;;4.60;3.40;;;1.90;99.90;;;;;;5012060;28;20033;-71
2022/02/25 02:01:35;;;;;;;3.38;3.08;;;1.90;99.90;;;;;;5011907;28;20037;-71
2022/02/25 02:04:02;;;;;;;5.03;3.60;;;2.00;99.90;;;;;;5012055;28;20025;-71
2022/02/25 02:06:28;;;;;;;4.18;3.17;;;2.00;99.90;;;;;;5012048;28;20018;-71
2022/02/25 02:08:54;;;;;;;3.70;2.85;;;2.00;99.90;;;;;;5011903;28;20491;-71
2022/02/25 02:11:32;;;;;;;3.35;2.97;;;2.00;99.90;;;;;;5011819;28;20033;-71
2022/02/25 02:14:00;;;;;;;3.65;2.90;;;2.10;99.90;;;;;;5019254;28;20029;-71
2022/02/25 02:16:27;;;;;;;4.18;3.17;;;2.00;99.90;;;;;;5027196;28;20022;-71
2022/02/25 02:18:53;;;;;;;5.03;3.00;;;1.90;99.90;;;;;;5020527;28;20499;-71
2022/02/25 02:21:23;;;;;;;3.63;2.88;;;2.00;99.90;;;;;;5030185;28;20040;-71
2022/02/25 02:23:49;;;;;;;4.13;3.08;;;2.00;99.90;;;;;;5031589;28;20113;-71
2022/02/25 02:26:14;;;;;;;3.72;2.78;;;2.20;99.90;;;;;;5029191;28;20100;-71
2022/02/25 02:28:40;;;;;;;2.60;2.40;;;2.10;99.90;;;;;;5011737;28;20034;-70
2022/02/25 02:31:06;;;;;;;4.05;2.72;;;2.10;99.90;;;;;;5011468;28;20022;-71
2022/02/25 02:33:31;;;;;;;4.53;2.90;;;2.10;99.90;;;;;;5011752;28;20034;-70
2022/02/25 02:35:57;;;;;;;4.35;2.72;;;2.00;99.90;;;;;;5011663;28;20387;-71
2022/02/25 02:38:25;;;;;;;3.22;2.38;;;2.00;99.90;;;;;;5011673;28;20457;-71
2022/02/25 02:40:51;;;;;;;3.22;2.55;;;2.00;99.90;;;;;;5011148;28;20030;-71
2022/02/25 02:43:16;;;;;;;3.25;2.85;;;2.00;99.90;;;;;;5023922;28;20128;-71
2022/02/25 02:45:42;;;;;;;3.63;2.58;;;1.90;99.90;;;;;;5029224;28;20022;-71
2022/02/25 02:48:08;;;;;;;3.08;2.78;;;2.00;99.90;;;;;;5024369;28;20026;-71
2022/02/25 02:50:33;;;;;;;4.10;2.33;;;1.90;99.90;;;;;;5026836;28;20045;-71
2022/02/25 02:52:59;;;;;;;3.35;2.05;;;1.90;99.90;;;;;;5023274;28;20030;-72
2022/02/25 02:55:24;;;;;;;2.78;2.20;;;1.90;99.90;;;;;;5015906;28;20022;-72
2022/02/25 02:57:51;;;;;;;2.50;1.73;;;1.90;99.90;;;;;;5011729;28;20435;-71
2022/02/25 03:00:17;;;;;;;2.47;2.03;;;1.80;99.90;;;;;;5013849;28;20018;-71
2022/02/25 03:02:43;;;;;;;3.13;1.80;;;1.80;99.90;;;;;;5024733;28;20047;-71
2022/02/25 03:05:10;;;;;;;3.17;2.10;;;1.80;99.90;;;;;;5015682;28;20030;-71
2022/02/25 03:07:36;;;;;;;2.58;1.77;;;1.70;99.90;;;;;;5010075;28;20062;-70
2022/02/25 03:10:05;;;;;;;5.43;1.75;;;1.60;99.90;;;;;;5011191;28;20500;-71
2022/02/25 03:12:31;;;;;;;2.35;1.83;;;1.60;99.90;;;;;;5009914;28;20053;-71
2022/02/25 03:14:57;;;;;;;2.35;1.90;;;1.60;99.90;;;;;;5011369;28;20365;-71
2022/02/25 03:17:22;;;;;;;4.07;1.50;;;1.50;99.90;;;;;;5011259;28;20076;-71
2022/02/25 03:19:48;;;;;;;1.77;1.67;;;1.50;99.90;;;;;;5025092;28;20112;-72
2022/02/25 03:22:13;;;;;;;2.30;1.67;;;1.50;99.90;;;;;;5020492;28;20107;-72
2022/02/25 03:24:39;;;;;;;1.50;1.40;;;1.50;99.90;;;;;;5011746;28;20084;-72
2022/02/25 03:27:05;;;;;;;2.90;1.60;;;1.40;99.90;;;;;;5016463;28;20026;-72
2022/02/25 03:29:30;;;;;;;2.05;1.83;;;1.40;99.90;;;;;;5014673;28;20025;-72
2022/02/25 03:31:56;;;;;;;2.22;1.90;;;1.40;99.90;;;;;;5014604;28;20089;-72
2022/02/25 03:34:21;;;;;;;1.83;1.70;;;1.40;99.90;;;;;;5023516;28;20030;-70
2022/02/25 03:36:47;;;;;;;3.05;1.70;;;1.40;99.90;;;;;;5034327;28;20028;-71
2022/02/25 03:39:12;;;;;;;2.15;1.80;;;1.30;99.90;;;;;;5028052;28;20033;-71
2022/02/25 03:41:38;;;;;;;2.63;1.83;;;1.40;99.90;;;;;;5026122;28;20018;-70
2022/02/25 03:44:03;;;;;;;3.72;2.08;;;1.40;99.90;;;;;;5026923;28;20025;-71
2022/02/25 03:46:29;;;;;;;3.70;2.20;;;1.30;99.90;;;;;;5014441;28;20026;-70
2022/02/25 03:48:55;;;;;;;2.22;1.88;;;1.20;99.90;;;;;;5014241;28;20030;-71
2022/02/25 03:51:21;;;;;;;3.85;2.83;;;1.20;99.90;;;;;;5020772;28;20499;-72
2022/02/25 03:53:48;;;;;;;3.35;2.10;;;1.30;99.90;;;;;;5031176;28;20548;-71
2022/02/25 03:56:15;;;;;;;3.25;2.03;;;1.40;99.90;;;;;;5014453;28;20073;-71
2022/02/25 03:58:41;;;;;;;4.07;2.20;;;1.40;99.90;;;;;;5014174;28;20026;-71
2022/02/25 04:01:06;;;;;;;3.40;2.30;;;1.40;99.90;;;;;;5014019;28;20057;-70
2022/02/25 04:03:32;;;;;;;3.97;2.50;;;1.40;99.90;;;;;;5014283;28;20084;-70
2022/02/25 04:05:57;;;;;;;2.70;2.00;;;1.50;99.90;;;;;;5014188;28;20026;-70
2022/02/25 04:08:23;;;;;;;3.70;2.50;;;1.50;99.90;;;;;;5012807;28;20132;-70
2022/02/25 04:10:48;;;;;;;4.32;2.58;;;1.50;99.90;;;;;;5013780;28;20026;-70
2022/02/25 04:13:14;;;;;;;3.35;2.50;;;1.50;99.90;;;;;;5025882;28;20018;-70
2022/02/25 04:15:39;;;;;;;3.00;2.33;;;1.50;99.90;;;;;;5020847;28;20029;-70
2022/02/25 04:18:05;;;;;;;7.43;3.00;;;1.30;99.90;;;;;;5028297;28;21239;-70
2022/02/25 04:20:31;;;;;;;4.22;2.60;;;1.40;99.90;;;;;;5033411;28;20426;-70
2022/02/25 04:22:56;;;;;;;3.15;2.80;;;1.50;99.90;;;;;;5032309;28;20033;-70
2022/02/25 04:25:22;;;;;;;3.60;2.80;;;1.40;99.90;;;;;;5028443;28;20029;-70
2022/02/25 04:27:48;;;;;;;5.00;2.75;;;1.40;99.90;;;;;;5024186;28;20025;-70
2022/02/25 04:30:13;;;;;;;4.70;3.28;;;1.40;99.90;;;;;;5029472;28;20410;-70
2022/02/25 04:32:39;;;;;;;5.35;3.13;;;1.50;99.90;;;;;;5024145;28;20471;-70
2022/02/25 04:35:05;;;;;;;4.72;3.15;;;1.50;99.90;;;;;;5013598;28;20101;-70
2022/02/25 04:37:31;;;;;;;7.57;4.07;;;1.60;99.90;;;;;;5012542;28;20030;-70
2022/02/25 04:39:56;;;;;;;5.78;3.92;;;1.60;99.90;;;;;;5012188;28;20559;-70
2022/02/25 04:42:23;;;;;;;3.72;3.33;;;1.60;99.90;;;;;;5013281;28;20038;-70
2022/02/25 04:44:48;;;;;;;4.03;3.20;;;1.50;99.90;;;;;;5017951;28;20030;-70
2022/02/25 04:47:14;;;;;;;5.47;3.58;;;1.60;99.90;;;;;;5028569;28;20029;-71
2022/02/25 04:49:40;;;;;;;5.43;3.42;;;1.50;99.90;;;;;;5027314;23;20069;-76
2022/02/25 04:52:06;;;;;;;4.30;3.47;;;1.50;99.90;;;;;;5014916;28;20034;-77
2022/02/25 04:54:32;;;;;;;5.18;3.10;;;1.50;99.90;;;;;;5013682;28;20103;-75
2022/02/25 04:56:58;;;;;;;4.88;3.22;;;1.50;99.90;;;;;;5013205;28;20080;-76
2022/02/25 04:59:24;;;;;;;6.57;3.45;;;1.50;99.90;;;;;;5011890;28;20030;-76
2022/02/25 05:01:49;;;;;;;3.53;3.22;;;1.50;99.90;;;;;;5013303;28;20045;-78
2022/02/25 05:04:15;;;;;;;5.90;3.30;;;1.60;99.90;;;;;;5013267;28;20026;-78
2022/02/25 05:06:41;;;;;;;6.18;3.20;;;1.70;99.90;;;;;;5013388;28;20093;-75
2022/02/25 05:09:06;;;;;;;5.85;3.33;;;1.70;99.90;;;;;;5012443;28;20021;-74
2022/02/25 05:11:32;;;;;;;6.40;3.88;;;1.70;99.90;;;;;;5017207;28;20426;-75
2022/02/25 05:13:57;;;;;;;4.22;2.70;;;1.60;99.90;;;;;;5020965;28;20479;-76
2022/02/25 05:21:51;;;;;;;4.95;2.92;;;1.60;99.90;;;;;;5012563;28;20084;-76
2022/02/25 05:24:17;;;;;;;8.48;3.08;;;1.60;99.90;;;;;;5012742;28;20117;-77
2022/02/25 05:26:43;;;;;;;4.00;2.80;;;1.60;99.90;;;;;;5013144;28;20085;-76
2022/02/25 05:29:09;;;;;;;5.80;3.08;;;1.50;99.90;;;;;;5028627;28;20025;-76
2022/02/25 05:31:35;;;;;;;6.93;3.38;;;1.50;99.90;;;;;;5011189;28;20041;-73
2022/02/25 05:34:00;;;;;;;5.90;3.10;;;1.50;99.90;;;;;;5012852;28;20026;-73
2022/02/25 05:36:26;;;;;;;5.03;2.72;;;1.50;99.90;;;;;;5012536;28;20095;-73
2022/02/25 05:38:53;;;;;;;8.73;3.05;;;1.40;99.90;;;;;;5012474;28;20022;-73
2022/02/25 05:41:19;;;;;;;4.93;2.90;;;1.50;99.90;;;;;;5012194;28;20025;-74
2022/02/25 05:43:44;;;;;;;9.90;3.08;;;1.50;99.90;;;;;;4999467;28;20034;-74
2022/02/25 05:46:10;;;;;;;6.22;2.85;;;1.60;99.90;;;;;;5005921;28;20018;-75
2022/02/25 05:48:35;;;;;;;5.43;2.67;;;1.50;99.90;;;;;;5003956;28;20071;-76
2022/02/25 05:51:01;;;;;;;4.90;2.70;;;1.50;99.90;;;;;;5011943;28;20038;-75
2022/02/25 05:53:27;;;;;;;5.40;2.95;;;1.60;99.90;;;;;;5019446;28;20025;-75
2022/02/25 05:55:52;;;;;;;7.90;2.92;;;1.50;99.90;;;;;;5012164;28;20586;-75
2022/02/25 05:58:18;;;;;;;5.10;2.70;;;1.50;99.90;;;;;;5009572;28;20377;-75
2022/02/25 06:00:44;;;;;;;7.88;3.13;;;1.40;99.90;;;;;;5021658;28;20025;-75
2022/02/25 06:03:09;;;;;;;9.57;2.90;;;1.40;99.90;;;;;;5025457;28;20032;-76
2022/02/25 06:05:35;;;;;;;3.58;2.70;;;1.40;99.90;;;;;;5012036;28;20427;-76
2022/02/25 06:08:00;;;;;;;7.47;2.50;;;1.40;99.90;;;;;;5012233;28;20490;-75
2022/02/25 06:10:27;;;;;;;3.95;2.40;;;1.30;99.90;;;;;;5016368;28;20029;-76
2022/02/25 06:12:53;;;;;;;5.20;2.60;;;1.30;99.90;;;;;;5022809;28;20490;-76
2022/02/25 06:15:19;;;;;;;6.65;3.15;;;1.20;99.90;;;;;;5012521;28;20393;-75
2022/02/25 06:17:50;;;;;;;7.78;2.63;;;1.20;99.90;;;;;;5011709;28;20034;-76
2022/02/25 06:20:17;;;;;;;6.47;2.63;;;1.20;99.90;;;;;;5010443;28;20030;-76
2022/02/25 06:22:44;;;;;;;7.60;3.28;;;1.20;99.90;;;;;;5011871;28;20022;-75
2022/02/25 06:25:10;;;;;;;5.22;3.20;;;1.10;99.90;;;;;;5011681;28;20442;-75
2022/02/25 06:27:38;;;;;;;6.63;3.22;;;1.10;99.90;;;;;;5018887;28;20028;-75
2022/02/25 06:30:06;;;;;;;9.18;3.97;;;1.20;99.90;;;;;;5021170;28;20064;-75
2022/02/25 06:32:32;;;;;;;4.97;3.05;;;1.20;99.90;;;;;;5011607;28;20432;-74
2022/02/25 06:34:57;;;;;;;7.35;3.95;;;1.30;99.90;;;;;;5011749;28;20113;-74
2022/02/25 06:37:23;;;;;;;6.10;3.47;;;1.30;99.90;;;;;;5011638;28;20035;-75
2022/02/25 06:39:48;;;;;;;5.63;3.17;;;1.30;99.90;;;;;;5011504;28;20029;-76
2022/02/25 06:42:14;;;;;;;6.55;3.08;;;1.40;99.90;;;;;;5010103;28;20030;-76
2022/02/25 06:44:39;;;;;;;6.05;3.22;;;1.40;99.90;;;;;;5010428;28;20504;-75
2022/02/25 06:47:05;;;;;;;5.82;3.22;;;1.30;99.90;;;;;;5016589;28;20482;-76
2022/02/25 06:49:31;;;;;;;10.18;3.67;;;1.30;99.90;;;;;;5018331;28;20026;-75
2022/02/25 06:51:57;;;;;;;6.05;3.10;;;1.30;99.90;;;;;;5021114;28;20032;-76
2022/02/25 06:54:22;;;;;;;4.03;2.88;;;1.30;99.90;;;;;;5010468;28;20033;-77
2022/02/25 06:56:48;;;;;;;5.70;3.00;;;1.30;99.90;;;;;;5011591;28;20026;-73
2022/02/25 06:59:13;;;;;;;9.88;6.93;;;1.30;99.90;;;;;;5011386;28;20036;-74
2022/02/25 07:01:39;;;;;;;23.88;14.77;;;1.30;99.90;;;;;;5020743;28;20022;-75
2022/02/25 07:04:04;;;;;;;8.85;4.53;;;1.30;99.90;;;;;;5023653;28;20030;-74
2022/02/25 07:06:30;;;;;;;10.38;6.30;;;1.30;99.90;;;;;;5026672;28;20045;-73
2022/02/25 07:08:55;;;;;;;12.07;9.93;;;1.30;99.90;;;;;;5023645;28;20030;-73
2022/02/25 07:11:21;;;;;;;11.52;8.57;;;1.40;99.90;;;;;;5029910;28;20022;-73
2022/02/25 07:13:47;;;;;;;8.95;7.80;;;1.40;99.90;;;;;;5021945;28;20041;-73
2022/02/25 07:16:13;;;;;;;6.45;3.85;;;1.40;99.90;;;;;;5029638;28;20018;-75
2022/02/25 07:18:38;;;;;;;5.45;4.10;;;1.30;99.90;;;;;;5022529;28;20033;-75
2022/02/25 07:21:04;;;;;;;5.30;4.07;;;1.30;99.90;;;;;;5026721;28;20033;-76
2022/02/25 07:23:30;;;;;;;9.82;3.80;;;1.40;99.90;;;;;;5027299;28;20395;-77
2022/02/25 07:25:55;;;;;;;7.32;4.35;;;1.30;99.90;;;;;;5025992;28;20026;-76
2022/02/25 07:28:21;;;;;;;9.02;3.50;;;1.40;99.90;;;;;;5026420;28;20018;-77
2022/02/25 07:30:46;;;;;;;9.32;3.97;;;1.50;99.90;;;;;;5025959;28;20056;-76
2022/02/25 07:33:12;;;;;;;8.00;3.60;;;1.60;99.90;;;;;;5019818;28;20372;-76
2022/02/25 07:35:37;;;;;;;7.18;3.90;;;1.60;99.90;;;;;;5018965;28;20033;-76
2022/02/25 07:38:03;;;;;;;11.52;4.18;;;1.60;99.90;;;;;;5013039;28;20030;-76
2022/02/25 07:40:29;;;;;;;8.82;4.15;;;1.60;99.90;;;;;;5022278;28;20033;-76
2022/02/25 07:42:55;;;;;;;9.52;3.67;;;1.60;99.90;;;;;;5014762;28;20117;-76
2022/02/25 07:45:21;;;;;;;6.95;4.38;;;1.50;99.90;;;;;;5005951;28;20042;-76
2022/02/25 07:47:46;;;;;;;8.25;4.32;;;1.40;99.90;;;;;;5014699;28;20383;-76
2022/02/25 07:50:13;;;;;;;9.93;3.95;;;1.40;99.90;;;;;;5002968;28;20042;-76
2022/02/25 07:52:39;;;;;;;11.48;4.15;;;1.30;99.90;;;;;;5007000;28;20018;-76
2022/02/25 07:55:06;;;;;;;8.88;3.63;;;1.40;99.90;;;;;;5006198;28;20112;-76
2022/02/25 07:57:33;;;;;;;8.43;3.92;;;1.50;99.90;;;;;;5001148;28;20072;-76
2022/02/25 07:59:58;;;;;;;8.75;3.92;;;1.60;99.90;;;;;;5002559;28;20435;-76
2022/02/25 08:02:24;;;;;;;8.85;3.67;;;1.60;99.90;;;;;;5007832;28;20026;-74
2022/02/25 08:04:50;;;;;;;6.85;3.85;;;1.70;99.90;;;;;;5006140;28;20029;-74
2022/02/25 08:07:15;;;;;;;8.02;3.50;;;1.80;99.90;;;;;;5001372;28;20030;-74
2022/02/25 08:09:41;;;;;;;9.50;3.70;;;1.90;99.90;;;;;;5001167;28;20021;-73
2022/02/25 08:12:07;;;;;;;11.75;3.47;;;2.00;99.90;;;;;;5012501;28;20465;-73
2022/02/25 08:14:37;;;;;;;9.20;3.80;;;2.00;99.90;;;;;;5025593;28;20437;-74
2022/02/25 08:17:06;;;;;;;7.75;3.78;;;2.10;99.90;;;;;;5018544;28;20049;-74
2022/02/25 08:19:32;;;;;;;8.52;3.80;;;2.10;99.90;;;;;;5019675;28;20100;-75
2022/02/25 08:21:58;;;;;;;13.63;4.18;;;2.20;99.90;;;;;;5024330;28;20122;-74
2022/02/25 08:24:24;;;;;;;9.90;3.95;;;2.30;99.90;;;;;;5013910;28;20089;-75
2022/02/25 08:26:49;;;;;;;9.73;3.92;;;2.40;99.90;;;;;;5007364;28;20022;-74
2022/02/25 08:29:15;;;;;;;8.18;3.53;;;2.50;99.90;;;;;;5007215;28;20446;-74
2022/02/25 08:31:43;;;;;;;7.55;3.95;;;2.50;99.90;;;;;;5013590;28;20046;-72
2022/02/25 08:34:09;;;;;;;10.90;4.25;;;2.40;99.90;;;;;;5015659;28;20022;-74
2022/02/25 08:36:35;;;;;;;8.85;4.85;;;2.60;99.90;;;;;;5017724;28;20091;-75
2022/02/25 08:39:00;;;;;;;5.85;3.50;;;2.70;99.90;;;;;;5021565;28;20029;-74
2022/02/25 08:41:26;;;;;;;10.30;3.65;;;2.80;99.90;;;;;;5023108;28;20060;-72
2022/02/25 08:43:51;;;;;;;9.10;3.45;;;3.00;99.90;;;;;;5023687;28;20029;-73
2022/02/25 08:46:17;;;;;;;9.30;4.65;;;3.00;99.90;;;;;;5012494;28;20031;-73
2022/02/25 08:48:42;;;;;;;11.60;4.47;;;3.10;99.90;;;;;;5013487;28;20399;-73
2022/02/25 08:51:08;;;;;;;8.15;3.38;;;3.20;99.90;;;;;;5011216;28;20389;-75
2022/02/25 08:53:33;;;;;;;8.88;3.25;;;3.00;99.90;;;;;;5014361;28;20377;-72
2022/02/25 08:55:59;;;;;;;10.00;3.20;;;3.00;99.90;;;;;;5025004;28;20041;-72
2022/02/25 08:58:24;;;;;;;9.55;3.10;;;2.90;99.90;;;;;;5019190;28;20034;-72
2022/02/25 09:00:50;;;;;;;5.55;3.17;;;3.00;99.90;;;;;;4999531;28;20040;-72
2022/02/25 09:03:16;;;;;;;10.27;3.30;;;3.10;99.90;;;;;;5011729;28;20032;-75
2022/02/25 09:05:42;;;;;;;8.00;2.90;;;3.20;99.90;;;;;;5013218;28;20052;-74
2022/02/25 09:08:07;;;;;;;5.03;2.38;;;3.00;99.90;;;;;;5011996;28;20109;-72
2022/02/25 09:10:33;;;;;;;7.95;3.00;;;3.30;99.90;;;;;;5012811;28;20538;-73
2022/02/25 09:12:58;;;;;;;7.72;2.50;;;3.40;99.90;;;;;;5001246;28;20031;-72
2022/02/25 09:15:26;;;;;;;6.43;2.92;;;3.30;99.90;;;;;;4993317;28;20420;-74
2022/02/25 09:17:55;;;;;;;8.60;3.30;;;3.30;99.90;;;;;;4993653;28;20104;-75
2022/02/25 09:20:21;;;;;;;8.35;3.08;;;3.40;99.90;;;;;;4999667;28;20345;-74
2022/02/25 09:22:46;;;;;;;8.77;3.38;;;3.40;99.90;;;;;;5012372;28;20079;-74
2022/02/25 09:25:12;;;;;;;8.13;2.78;;;3.50;99.90;;;;;;5011419;28;20026;-74
2022/02/25 09:27:39;;;;;;;8.90;2.85;;;3.70;99.90;;;;;;5012692;28;20490;-73
2022/02/25 09:30:07;;;;;;;7.53;2.30;;;4.00;99.90;;;;;;5003426;28;20446;-75
2022/02/25 09:32:33;;;;;;;8.38;2.58;;;4.10;99.90;;;;;;5004992;28;20077;-72
2022/02/25 09:34:58;;;;;;;7.32;2.33;;;4.10;99.90;;;;;;5003196;28;20450;-74
2022/02/25 09:37:24;;;;;;;7.63;2.45;;;3.90;99.90;;;;;;5000223;28;20026;-73
2022/02/25 09:39:50;;;;;;;5.72;2.33;;;3.90;99.90;;;;;;5008627;28;20022;-74
2022/02/25 09:42:20;;;;;;;6.90;2.65;;;3.90;99.90;;;;;;5009161;28;20064;-76
2022/02/25 09:44:45;;;;;;;8.88;2.28;;;4.10;99.90;;;;;;5012417;28;20030;-75
2022/02/25 09:47:13;;;;;;;9.15;2.72;;;4.30;99.90;;;;;;4999377;28;20423;-74
2022/02/25 09:49:38;;;;;;;9.52;2.42;;;4.60;99.90;;;;;;5003239;28;20029;-74
2022/02/25 09:52:04;;;;;;;6.50;2.58;;;4.50;99.90;;;;;;5011214;28;20030;-76
2022/02/25 09:54:30;;;;;;;7.22;2.50;;;4.30;99.90;;;;;;5000616;28;20018;-74
2022/02/25 09:56:55;;;;;;;10.15;3.03;;;3.80;99.90;;;;;;4999266;28;20069;-77
2022/02/25 09:59:22;;;;;;;7.68;2.92;;;3.90;99.90;;;;;;5004718;28;20428;-74
2022/02/25 10:01:49;;;;;;;12.77;2.78;;;3.90;99.90;;;;;;5006539;28;20021;-75
2022/02/25 10:04:19;;;;;;;7.95;2.60;;;3.70;99.90;;;;;;5004763;28;20037;-75
2022/02/25 10:06:45;;;;;;;9.77;2.78;;;3.70;99.90;;;;;;5004672;28;20081;-75
2022/02/25 10:09:26;;;;;;;11.10;3.08;;;4.10;99.90;;;;;;5000317;28;20464;-75
2022/02/25 10:12:12;;;;;;;9.02;2.72;;;4.40;99.90;;;;;;5010557;28;20515;-76
2022/02/25 10:14:43;;;;;;;8.50;3.00;;;4.40;99.90;;;;;;5012054;28;20076;-75
2022/02/25 10:17:14;;;;;;;8.48;2.95;;;4.30;99.90;;;;;;4999407;28;20116;-75
2022/02/25 10:19:41;;;;;;;9.60;2.92;;;4.50;99.90;;;;;;5011805;28;20387;-76
2022/02/25 10:22:31;;;;;;;6.85;2.28;;;4.60;99.90;;;;;;5010143;28;20117;-75
2022/02/25 10:25:00;;;;;;;7.43;2.22;;;4.30;99.90;;;;;;5011932;28;20030;-75
2022/02/25 10:27:32;;;;;;;9.18;2.58;;;4.70;99.90;;;;;;5016624;28;20022;-76
2022/02/25 10:30:10;;;;;;;5.50;2.30;;;4.60;99.90;;;;;;5011327;28;20022;-76
2022/02/25 10:32:41;;;;;;;7.10;2.38;;;4.60;99.90;;;;;;5011903;28;20553;-76
2022/02/25 10:35:20;;;;;;;8.98;2.30;;;4.60;99.90;;;;;;5003393;28;20026;-76
2022/02/25 10:37:59;;;;;;;5.75;2.20;;;4.70;99.90;;;;;;5009652;28;20037;-76
2022/02/25 10:40:25;;;;;;;9.55;2.35;;;4.70;99.90;;;;;;5006334;28;20553;-76
2022/02/25 10:42:51;;;;;;;8.85;2.30;;;4.60;99.90;;;;;;5001231;28;20080;-75
2022/02/25 10:45:40;;;;;;;7.38;2.33;;;4.80;99.90;;;;;;5013474;28;20025;-76
2022/02/25 10:48:10;;;;;;;8.80;2.78;;;4.80;99.90;;;;;;5022810;28;20045;-76
2022/02/25 10:50:51;;;;;;;9.60;2.72;;;5.00;99.90;;;;;;5012304;28;20034;-76
2022/02/25 10:53:26;;;;;;;7.03;2.38;;;4.80;99.90;;;;;;5006108;28;20068;-76
2022/02/25 10:56:10;;;;;;;8.40;2.42;;;4.80;99.90;;;;;;5001952;28;20034;-77
2022/02/25 10:58:38;;;;;;;5.57;2.05;;;4.70;99.90;;;;;;5031961;28;20024;-76
2022/02/25 11:01:03;;;;;;;8.50;2.10;;;4.40;99.90;;;;;;5022308;28;20033;-76
2022/02/25 11:03:29;;;;;;;7.53;2.05;;;4.30;99.90;;;;;;5018797;28;20018;-76
2022/02/25 11:05:55;;;;;;;7.82;2.40;;;4.20;99.90;;;;;;5023809;28;20038;-76
2022/02/25 11:08:21;;;;;;;7.35;2.70;;;4.30;99.90;;;;;;5027695;28;20021;-75
2022/02/25 11:10:46;;;;;;;6.20;2.20;;;4.50;99.90;;;;;;5021772;28;20030;-74
2022/02/25 11:13:15;;;;;;;8.45;2.53;;;4.50;99.90;;;;;;5013460;28;20450;-75
2022/02/25 11:15:43;;;;;;;7.43;2.30;;;4.80;99.90;;;;;;5008508;28;20014;-75
2022/02/25 11:18:09;;;;;;;6.53;2.30;;;5.20;99.90;;;;;;5009949;28;20034;-75
2022/02/25 11:20:36;;;;;;;7.72;2.33;;;5.00;99.90;;;;;;5015155;28;20479;-75
2022/02/25 11:23:09;;;;;;;7.32;2.20;;;5.50;99.90;;;;;;5025397;28;20029;-74
2022/02/25 11:25:37;;;;;;;7.15;2.55;;;5.50;99.90;;;;;;5030252;28;20029;-75
2022/02/25 11:28:04;;;;;;;7.00;2.22;;;5.60;99.90;;;;;;5022759;28;20033;-75
2022/02/25 11:30:53;;;;;;;7.70;2.75;;;5.40;99.90;;;;;;5017240;28;20025;-75
2022/02/25 11:33:21;;;;;;;7.28;2.25;;;5.40;99.90;;;;;;5008963;28;20400;-75
2022/02/25 11:35:49;;;;;;;8.50;2.33;;;5.50;99.90;;;;;;5013146;28;20447;-75
2022/02/25 11:38:15;;;;;;;7.88;2.47;;;5.80;99.90;;;;;;5020521;28;20025;-75
2022/02/25 11:41:19;;;;;;;9.32;2.33;;;5.40;99.90;;;;;;5024923;28;20049;-75
2022/02/25 11:43:48;;;;;;;5.70;2.03;;;5.30;99.90;;;;;;4988935;28;20042;-75
2022/02/25 11:46:24;;;;;;;8.43;2.55;;;5.10;99.90;;;;;;5022320;28;20018;-75
2022/02/25 11:48:52;;;;;;;7.70;2.40;;;5.20;99.90;;;;;;5021221;28;20069;-74
2022/02/25 11:51:24;;;;;;;7.00;2.40;;;5.20;99.90;;;;;;5013020;28;20022;-75
2022/02/25 11:54:31;;;;;;;5.95;2.15;;;5.30;99.90;;;;;;5011227;28;20026;-74
2022/02/25 11:56:56;;;;;;;8.05;2.88;;;5.30;99.90;;;;;;5010502;28;20365;-74
2022/02/25 11:59:46;;;;;;;10.52;2.25;;;5.30;99.90;;;;;;5009697;28;20087;-74
2022/02/25 12:02:17;;;;;;;10.40;2.78;;;5.30;99.90;;;;;;5020475;28;20380;-74
2022/02/25 12:04:45;;;;;;;8.45;2.30;;;5.30;99.90;;;;;;5025707;28;20087;-75
2022/02/25 12:07:15;;;;;;;6.00;2.13;;;5.40;99.90;;;;;;5022830;28;20062;-74
2022/02/25 12:10:00;;;;;;;6.43;2.28;;;5.60;99.90;;;;;;5024143;28;20025;-75
2022/02/25 12:12:29;;;;;;;11.05;2.50;;;5.60;99.90;;;;;;5015926;28;20027;-74
2022/02/25 12:15:00;;;;;;;9.15;2.20;;;5.90;99.90;;;;;;5023265;28;20494;-75
2022/02/25 12:17:41;;;;;;;8.63;2.47;;;5.90;99.90;;;;;;5024220;28;20033;-75
2022/02/25 12:20:11;;;;;;;11.32;2.45;;;5.80;99.90;;;;;;5020942;28;20415;-75
2022/02/25 12:23:02;;;;;;;13.20;2.67;;;6.30;99.90;;;;;;5025146;28;20027;-75
2022/02/25 12:25:40;;;;;;;7.32;2.13;;;6.50;99.90;;;;;;5016454;28;20100;-75
2022/02/25 12:28:27;;;;;;;6.50;2.47;;;6.10;99.90;;;;;;5024177;28;20022;-74
2022/02/25 12:31:03;;;;;;;8.23;2.25;;;6.20;99.90;;;;;;5024752;28;20014;-74
2022/02/25 12:33:57;;;;;;;6.32;2.08;;;6.20;99.90;;;;;;5015511;28;20040;-75
2022/02/25 12:36:28;;;;;;;7.43;2.13;;;5.90;99.90;;;;;;5022520;28;20056;-74
2022/02/25 12:39:24;;;;;;;6.63;2.30;;;5.80;99.90;;;;;;5015169;28;20018;-75
2022/02/25 12:41:58;;;;;;;5.18;1.88;;;5.70;99.90;;;;;;4992454;28;20124;-75
2022/02/25 12:44:30;;;;;;;7.22;2.30;;;5.70;99.90;;;;;;5007121;28;20064;-75
2022/02/25 12:47:05;;;;;;;8.50;2.72;;;5.90;99.90;;;;;;5011574;28;20073;-75
2022/02/25 12:49:32;;;;;;;9.68;2.72;;;5.70;99.90;;;;;;5007014;28;20104;-75
2022/02/25 12:52:02;;;;;;;10.75;2.67;;;5.60;99.90;;;;;;5013202;28;20105;-75
2022/02/25 12:54:31;;;;;;;8.95;2.63;;;5.60;99.90;;;;;;5013149;28;20026;-75
2022/02/25 12:57:00;;;;;;;8.80;2.67;;;5.50;99.90;;;;;;5013098;28;20037;-75
2022/02/25 12:59:37;;;;;;;11.77;2.78;;;5.50;99.90;;;;;;5012472;28;20096;-75
2022/02/25 13:02:09;;;;;;;8.52;2.35;;;5.40;99.90;;;;;;5012795;28;20068;-75
2022/02/25 13:04:54;;;;;;;13.02;3.05;;;5.30;99.90;;;;;;5013027;28;20054;-75